sensor_id;sensor_type;location;lat;lon;timestamp;P1;durP1;ratioP1;P2;durP2;ratioP2
22829;SDS011;11581;51.250;6.778;2023-05-31T00:02:16;5.57;;;4.20;;
22829;SDS011;11581;51.250;6.778;2023-05-31T00:04:43;6.70;;;4.00;;
22829;SDS011;11581;51.250;6.778;2023-05-31T00:07:10;6.82;;;4.13;;
22829;SDS011;11581;51.250;6.778;2023-05-31T00:09:38;7.10;;;4.18;;
22829;SDS011;11581;51.250;6.778;2023-05-31T00:12:05;6.53;;;4.05;;
22829;SDS011;11581;51.250;6.778;2023-05-31T00:14:32;7.72;;;4.68;;
22829;SDS011;11581;51.250;6.778;2023-05-31T00:16:59;6.72;;;4.05;;
22829;SDS011;11581;51.250;6.778;2023-05-31T00:19:25;7.82;;;4.60;;
22829;SDS011;11581;51.250;6.778;2023-05-31T00:21:52;8.52;;;4.75;;
22829;SDS011;11581;51.250;6.778;2023-05-31T00:24:19;6.70;;;3.90;;
22829;SDS011;11581;51.250;6.778;2023-05-31T00:26:48;8.18;;;4.35;;
22829;SDS011;11581;51.250;6.778;2023-05-31T00:29:14;7.28;;;4.15;;
22829;SDS011;11581;51.250;6.778;2023-05-31T00:31:41;6.13;;;4.07;;
22829;SDS011;11581;51.250;6.778;2023-05-31T00:34:08;5.78;;;3.90;;
22829;SDS011;11581;51.250;6.778;2023-05-31T00:36:37;6.95;;;4.03;;
22829;SDS011;11581;51.250;6.778;2023-05-31T00:39:03;5.75;;;3.78;;
22829;SDS011;11581;51.250;6.778;2023-05-31T00:41:30;7.53;;;4.45;;
22829;SDS011;11581;51.250;6.778;2023-05-31T00:43:58;7.80;;;3.97;;
22829;SDS011;11581;51.250;6.778;2023-05-31T00:46:25;5.55;;;3.63;;
22829;SDS011;11581;51.250;6.778;2023-05-31T00:48:54;6.30;;;3.78;;
22829;SDS011;11581;51.250;6.778;2023-05-31T00:51:21;5.90;;;3.83;;
22829;SDS011;11581;51.250;6.778;2023-05-31T00:53:49;9.23;;;3.85;;
22829;SDS011;11581;51.250;6.778;2023-05-31T00:56:16;6.28;;;4.00;;
22829;SDS011;11581;51.250;6.778;2023-05-31T00:58:46;8.75;;;3.88;;
22829;SDS011;11581;51.250;6.778;2023-05-31T01:01:14;8.43;;;4.65;;
22829;SDS011;11581;51.250;6.778;2023-05-31T01:03:42;7.63;;;4.40;;
22829;SDS011;11581;51.250;6.778;2023-05-31T01:06:09;8.02;;;4.35;;
22829;SDS011;11581;51.250;6.778;2023-05-31T01:08:36;5.63;;;3.88;;
22829;SDS011;11581;51.250;6.778;2023-05-31T01:11:07;5.57;;;3.75;;
22829;SDS011;11581;51.250;6.778;2023-05-31T01:13:42;7.93;;;4.18;;
22829;SDS011;11581;51.250;6.778;2023-05-31T01:16:16;9.40;;;3.83;;
22829;SDS011;11581;51.250;6.778;2023-05-31T01:18:49;5.13;;;3.85;;
22829;SDS011;11581;51.250;6.778;2023-05-31T01:21:21;7.95;;;4.03;;
22829;SDS011;11581;51.250;6.778;2023-05-31T01:23:59;9.35;;;3.92;;
22829;SDS011;11581;51.250;6.778;2023-05-31T01:26:42;8.18;;;4.40;;
22829;SDS011;11581;51.250;6.778;2023-05-31T01:29:12;6.20;;;4.47;;
22829;SDS011;11581;51.250;6.778;2023-05-31T01:31:42;7.32;;;4.18;;
22829;SDS011;11581;51.250;6.778;2023-05-31T01:34:11;8.07;;;4.70;;
22829;SDS011;11581;51.250;6.778;2023-05-31T01:36:39;7.72;;;4.40;;
22829;SDS011;11581;51.250;6.778;2023-05-31T01:39:05;7.72;;;4.38;;
22829;SDS011;11581;51.250;6.778;2023-05-31T01:41:35;7.45;;;4.65;;
22829;SDS011;11581;51.250;6.778;2023-05-31T01:44:06;8.05;;;4.40;;
22829;SDS011;11581;51.250;6.778;2023-05-31T01:46:34;8.93;;;4.22;;
22829;SDS011;11581;51.250;6.778;2023-05-31T01:49:01;5.68;;;4.13;;
22829;SDS011;11581;51.250;6.778;2023-05-31T01:51:28;6.70;;;4.47;;
22829;SDS011;11581;51.250;6.778;2023-05-31T01:53:57;6.82;;;4.00;;
22829;SDS011;11581;51.250;6.778;2023-05-31T01:56:24;7.15;;;4.22;;
22829;SDS011;11581;51.250;6.778;2023-05-31T01:58:53;7.63;;;4.18;;
22829;SDS011;11581;51.250;6.778;2023-05-31T02:01:23;5.80;;;3.88;;
22829;SDS011;11581;51.250;6.778;2023-05-31T02:03:50;5.70;;;4.20;;
22829;SDS011;11581;51.250;6.778;2023-05-31T02:06:17;6.90;;;4.03;;
22829;SDS011;11581;51.250;6.778;2023-05-31T02:08:44;7.68;;;4.88;;
22829;SDS011;11581;51.250;6.778;2023-05-31T02:11:11;8.02;;;4.70;;
22829;SDS011;11581;51.250;6.778;2023-05-31T02:13:38;6.35;;;3.80;;
22829;SDS011;11581;51.250;6.778;2023-05-31T02:16:05;9.07;;;4.55;;
22829;SDS011;11581;51.250;6.778;2023-05-31T02:18:33;7.80;;;3.75;;
22829;SDS011;11581;51.250;6.778;2023-05-31T02:21:00;8.73;;;4.45;;
22829;SDS011;11581;51.250;6.778;2023-05-31T02:23:27;5.43;;;3.88;;
22829;SDS011;11581;51.250;6.778;2023-05-31T02:25:53;9.43;;;4.15;;
22829;SDS011;11581;51.250;6.778;2023-05-31T02:28:21;5.90;;;3.83;;
22829;SDS011;11581;51.250;6.778;2023-05-31T02:30:53;6.70;;;3.90;;
22829;SDS011;11581;51.250;6.778;2023-05-31T02:33:22;6.60;;;4.05;;
22829;SDS011;11581;51.250;6.778;2023-05-31T02:35:50;7.88;;;4.35;;
22829;SDS011;11581;51.250;6.778;2023-05-31T02:38:17;5.65;;;3.65;;
22829;SDS011;11581;51.250;6.778;2023-05-31T02:40:44;6.95;;;4.25;;
22829;SDS011;11581;51.250;6.778;2023-05-31T02:43:11;10.75;;;4.43;;
22829;SDS011;11581;51.250;6.778;2023-05-31T02:45:38;7.88;;;5.05;;
22829;SDS011;11581;51.250;6.778;2023-05-31T02:48:05;8.02;;;4.20;;
22829;SDS011;11581;51.250;6.778;2023-05-31T02:50:32;7.53;;;5.05;;
22829;SDS011;11581;51.250;6.778;2023-05-31T02:53:01;9.88;;;5.28;;
22829;SDS011;11581;51.250;6.778;2023-05-31T02:55:44;8.75;;;5.32;;
22829;SDS011;11581;51.250;6.778;2023-05-31T02:58:35;8.00;;;5.22;;
22829;SDS011;11581;51.250;6.778;2023-05-31T03:01:20;6.80;;;4.78;;
22829;SDS011;11581;51.250;6.778;2023-05-31T03:04:00;9.80;;;5.22;;
22829;SDS011;11581;51.250;6.778;2023-05-31T03:06:31;9.65;;;5.82;;
22829;SDS011;11581;51.250;6.778;2023-05-31T03:09:01;8.63;;;5.28;;
22829;SDS011;11581;51.250;6.778;2023-05-31T03:11:29;7.72;;;5.50;;
22829;SDS011;11581;51.250;6.778;2023-05-31T03:13:55;8.25;;;5.05;;
22829;SDS011;11581;51.250;6.778;2023-05-31T03:16:26;8.63;;;5.72;;
22829;SDS011;11581;51.250;6.778;2023-05-31T03:18:53;9.05;;;5.78;;
22829;SDS011;11581;51.250;6.778;2023-05-31T03:21:21;8.73;;;6.00;;
22829;SDS011;11581;51.250;6.778;2023-05-31T03:23:51;11.13;;;6.40;;
22829;SDS011;11581;51.250;6.778;2023-05-31T03:26:19;9.98;;;6.22;;
22829;SDS011;11581;51.250;6.778;2023-05-31T03:28:46;8.25;;;5.95;;
22829;SDS011;11581;51.250;6.778;2023-05-31T03:31:12;11.10;;;6.50;;
22829;SDS011;11581;51.250;6.778;2023-05-31T03:33:40;12.82;;;7.13;;
22829;SDS011;11581;51.250;6.778;2023-05-31T03:36:07;9.23;;;5.90;;
22829;SDS011;11581;51.250;6.778;2023-05-31T03:38:34;8.27;;;5.95;;
22829;SDS011;11581;51.250;6.778;2023-05-31T03:41:01;9.90;;;5.90;;
22829;SDS011;11581;51.250;6.778;2023-05-31T03:43:29;9.98;;;6.28;;
22829;SDS011;11581;51.250;6.778;2023-05-31T03:45:56;12.90;;;6.65;;
22829;SDS011;11581;51.250;6.778;2023-05-31T03:48:25;11.20;;;6.80;;
22829;SDS011;11581;51.250;6.778;2023-05-31T03:50:52;8.68;;;6.53;;
22829;SDS011;11581;51.250;6.778;2023-05-31T03:53:19;10.38;;;6.10;;
22829;SDS011;11581;51.250;6.778;2023-05-31T03:55:45;15.35;;;6.88;;
22829;SDS011;11581;51.250;6.778;2023-05-31T03:58:12;8.98;;;6.85;;
22829;SDS011;11581;51.250;6.778;2023-05-31T04:00:41;9.80;;;6.05;;
22829;SDS011;11581;51.250;6.778;2023-05-31T04:03:08;9.77;;;6.20;;
22829;SDS011;11581;51.250;6.778;2023-05-31T04:05:37;8.85;;;6.32;;
22829;SDS011;11581;51.250;6.778;2023-05-31T04:08:06;9.65;;;5.93;;
22829;SDS011;11581;51.250;6.778;2023-05-31T04:10:33;9.98;;;6.30;;
22829;SDS011;11581;51.250;6.778;2023-05-31T04:13:00;11.50;;;6.72;;
22829;SDS011;11581;51.250;6.778;2023-05-31T04:15:26;8.25;;;5.47;;
22829;SDS011;11581;51.250;6.778;2023-05-31T04:17:58;12.98;;;6.88;;
22829;SDS011;11581;51.250;6.778;2023-05-31T04:20:26;11.63;;;6.63;;
22829;SDS011;11581;51.250;6.778;2023-05-31T04:22:52;10.05;;;5.82;;
22829;SDS011;11581;51.250;6.778;2023-05-31T04:25:19;10.38;;;5.90;;
22829;SDS011;11581;51.250;6.778;2023-05-31T04:27:47;9.07;;;5.68;;
22829;SDS011;11581;51.250;6.778;2023-05-31T04:30:14;11.20;;;6.38;;
22829;SDS011;11581;51.250;6.778;2023-05-31T04:32:41;11.98;;;6.15;;
22829;SDS011;11581;51.250;6.778;2023-05-31T04:35:11;9.50;;;6.22;;
22829;SDS011;11581;51.250;6.778;2023-05-31T04:37:41;10.20;;;5.60;;
22829;SDS011;11581;51.250;6.778;2023-05-31T04:40:10;12.90;;;6.30;;
22829;SDS011;11581;51.250;6.778;2023-05-31T04:42:37;8.63;;;5.07;;
22829;SDS011;11581;51.250;6.778;2023-05-31T04:45:14;9.82;;;5.35;;
22829;SDS011;11581;51.250;6.778;2023-05-31T04:47:47;8.75;;;5.30;;
22829;SDS011;11581;51.250;6.778;2023-05-31T04:50:18;9.48;;;5.65;;
22829;SDS011;11581;51.250;6.778;2023-05-31T04:52:45;8.20;;;5.50;;
22829;SDS011;11581;51.250;6.778;2023-05-31T04:55:12;7.95;;;5.40;;
22829;SDS011;11581;51.250;6.778;2023-05-31T04:57:39;9.90;;;5.15;;
22829;SDS011;11581;51.250;6.778;2023-05-31T05:00:08;7.65;;;5.05;;
22829;SDS011;11581;51.250;6.778;2023-05-31T05:02:48;9.63;;;5.18;;
22829;SDS011;11581;51.250;6.778;2023-05-31T05:05:15;8.82;;;4.82;;
22829;SDS011;11581;51.250;6.778;2023-05-31T05:07:43;6.72;;;4.57;;
22829;SDS011;11581;51.250;6.778;2023-05-31T05:10:10;8.88;;;4.93;;
22829;SDS011;11581;51.250;6.778;2023-05-31T05:12:37;8.90;;;5.18;;
22829;SDS011;11581;51.250;6.778;2023-05-31T05:15:05;7.22;;;4.05;;
22829;SDS011;11581;51.250;6.778;2023-05-31T05:17:32;11.88;;;4.47;;
22829;SDS011;11581;51.250;6.778;2023-05-31T05:19:59;6.97;;;4.18;;
22829;SDS011;11581;51.250;6.778;2023-05-31T05:22:27;9.52;;;4.38;;
22829;SDS011;11581;51.250;6.778;2023-05-31T05:24:55;6.78;;;3.70;;
22829;SDS011;11581;51.250;6.778;2023-05-31T05:27:22;9.27;;;4.05;;
22829;SDS011;11581;51.250;6.778;2023-05-31T05:29:49;7.05;;;3.63;;
22829;SDS011;11581;51.250;6.778;2023-05-31T05:32:15;6.43;;;3.45;;
22829;SDS011;11581;51.250;6.778;2023-05-31T05:34:43;11.45;;;3.92;;
22829;SDS011;11581;51.250;6.778;2023-05-31T05:37:10;8.43;;;3.03;;
22829;SDS011;11581;51.250;6.778;2023-05-31T05:39:37;8.18;;;3.42;;
22829;SDS011;11581;51.250;6.778;2023-05-31T05:42:05;6.78;;;3.90;;
22829;SDS011;11581;51.250;6.778;2023-05-31T05:44:32;8.55;;;3.42;;
22829;SDS011;11581;51.250;6.778;2023-05-31T05:46:59;6.65;;;3.85;;
22829;SDS011;11581;51.250;6.778;2023-05-31T05:49:25;4.53;;;2.92;;
22829;SDS011;11581;51.250;6.778;2023-05-31T05:51:52;7.78;;;3.20;;
22829;SDS011;11581;51.250;6.778;2023-05-31T05:54:19;4.88;;;2.80;;
22829;SDS011;11581;51.250;6.778;2023-05-31T05:56:45;12.98;;;3.10;;
22829;SDS011;11581;51.250;6.778;2023-05-31T05:59:15;6.57;;;2.80;;
22829;SDS011;11581;51.250;6.778;2023-05-31T06:01:44;7.13;;;2.50;;
22829;SDS011;11581;51.250;6.778;2023-05-31T06:04:13;5.15;;;2.72;;
22829;SDS011;11581;51.250;6.778;2023-05-31T06:06:41;6.43;;;2.65;;
22829;SDS011;11581;51.250;6.778;2023-05-31T06:09:08;8.27;;;2.70;;
22829;SDS011;11581;51.250;6.778;2023-05-31T06:11:35;4.38;;;2.50;;
22829;SDS011;11581;51.250;6.778;2023-05-31T06:14:02;9.10;;;3.35;;
22829;SDS011;11581;51.250;6.778;2023-05-31T06:16:37;5.65;;;3.25;;
22829;SDS011;11581;51.250;6.778;2023-05-31T06:19:04;7.28;;;2.47;;
22829;SDS011;11581;51.250;6.778;2023-05-31T06:21:31;6.10;;;3.17;;
22829;SDS011;11581;51.250;6.778;2023-05-31T06:24:00;5.38;;;3.00;;
22829;SDS011;11581;51.250;6.778;2023-05-31T06:26:27;6.00;;;2.78;;
22829;SDS011;11581;51.250;6.778;2023-05-31T06:28:54;9.05;;;2.47;;
22829;SDS011;11581;51.250;6.778;2023-05-31T06:31:42;12.07;;;2.67;;
22829;SDS011;11581;51.250;6.778;2023-05-31T06:34:08;4.72;;;2.53;;
22829;SDS011;11581;51.250;6.778;2023-05-31T06:36:35;9.85;;;2.70;;
22829;SDS011;11581;51.250;6.778;2023-05-31T06:39:02;11.75;;;2.92;;
22829;SDS011;11581;51.250;6.778;2023-05-31T06:41:29;3.10;;;2.10;;
22829;SDS011;11581;51.250;6.778;2023-05-31T06:43:58;4.68;;;2.30;;
22829;SDS011;11581;51.250;6.778;2023-05-31T06:46:38;8.77;;;2.58;;
22829;SDS011;11581;51.250;6.778;2023-05-31T06:49:36;10.32;;;2.42;;
22829;SDS011;11581;51.250;6.778;2023-05-31T06:52:29;4.78;;;2.45;;
22829;SDS011;11581;51.250;6.778;2023-05-31T06:55:26;4.00;;;2.00;;
22829;SDS011;11581;51.250;6.778;2023-05-31T06:57:53;5.68;;;2.30;;
22829;SDS011;11581;51.250;6.778;2023-05-31T07:00:19;3.97;;;1.90;;
22829;SDS011;11581;51.250;6.778;2023-05-31T07:02:46;4.35;;;2.17;;
22829;SDS011;11581;51.250;6.778;2023-05-31T07:05:15;4.60;;;2.05;;
22829;SDS011;11581;51.250;6.778;2023-05-31T07:07:41;5.63;;;2.60;;
22829;SDS011;11581;51.250;6.778;2023-05-31T07:10:08;6.85;;;2.33;;
22829;SDS011;11581;51.250;6.778;2023-05-31T07:12:35;5.82;;;1.95;;
22829;SDS011;11581;51.250;6.778;2023-05-31T07:15:01;4.72;;;2.00;;
22829;SDS011;11581;51.250;6.778;2023-05-31T07:17:28;3.95;;;1.95;;
22829;SDS011;11581;51.250;6.778;2023-05-31T07:19:55;6.60;;;1.88;;
22829;SDS011;11581;51.250;6.778;2023-05-31T07:22:23;4.88;;;2.05;;
22829;SDS011;11581;51.250;6.778;2023-05-31T07:24:50;3.35;;;1.92;;
22829;SDS011;11581;51.250;6.778;2023-05-31T07:27:16;4.10;;;1.98;;
22829;SDS011;11581;51.250;6.778;2023-05-31T07:29:44;4.30;;;2.05;;
22829;SDS011;11581;51.250;6.778;2023-05-31T07:32:11;3.97;;;1.70;;
22829;SDS011;11581;51.250;6.778;2023-05-31T07:34:37;3.67;;;1.77;;
22829;SDS011;11581;51.250;6.778;2023-05-31T07:37:04;3.25;;;1.65;;
22829;SDS011;11581;51.250;6.778;2023-05-31T07:39:33;4.88;;;2.20;;
22829;SDS011;11581;51.250;6.778;2023-05-31T07:42:00;4.13;;;1.73;;
22829;SDS011;11581;51.250;6.778;2023-05-31T07:44:27;5.90;;;2.03;;
22829;SDS011;11581;51.250;6.778;2023-05-31T07:46:53;5.22;;;1.70;;
22829;SDS011;11581;51.250;6.778;2023-05-31T07:49:20;3.28;;;1.50;;
22829;SDS011;11581;51.250;6.778;2023-05-31T07:51:47;3.75;;;1.60;;
22829;SDS011;11581;51.250;6.778;2023-05-31T07:54:13;2.90;;;1.33;;
22829;SDS011;11581;51.250;6.778;2023-05-31T07:56:41;2.45;;;1.38;;
22829;SDS011;11581;51.250;6.778;2023-05-31T07:59:08;6.22;;;1.92;;
22829;SDS011;11581;51.250;6.778;2023-05-31T08:01:35;3.28;;;1.48;;
22829;SDS011;11581;51.250;6.778;2023-05-31T08:04:05;6.80;;;1.40;;
22829;SDS011;11581;51.250;6.778;2023-05-31T08:06:32;5.43;;;1.52;;
22829;SDS011;11581;51.250;6.778;2023-05-31T08:08:59;2.80;;;1.20;;
22829;SDS011;11581;51.250;6.778;2023-05-31T08:11:26;3.65;;;1.58;;
22829;SDS011;11581;51.250;6.778;2023-05-31T08:13:54;5.10;;;1.88;;
22829;SDS011;11581;51.250;6.778;2023-05-31T08:16:20;4.20;;;1.50;;
22829;SDS011;11581;51.250;6.778;2023-05-31T08:18:47;5.47;;;1.75;;
22829;SDS011;11581;51.250;6.778;2023-05-31T08:21:14;4.00;;;1.98;;
22829;SDS011;11581;51.250;6.778;2023-05-31T08:23:42;3.55;;;1.77;;
22829;SDS011;11581;51.250;6.778;2023-05-31T08:26:09;3.97;;;1.60;;
22829;SDS011;11581;51.250;6.778;2023-05-31T08:28:35;4.82;;;1.60;;
22829;SDS011;11581;51.250;6.778;2023-05-31T08:31:03;3.20;;;1.58;;
22829;SDS011;11581;51.250;6.778;2023-05-31T08:33:30;4.10;;;1.90;;
22829;SDS011;11581;51.250;6.778;2023-05-31T08:35:57;3.40;;;1.60;;
22829;SDS011;11581;51.250;6.778;2023-05-31T08:38:25;5.40;;;1.98;;
22829;SDS011;11581;51.250;6.778;2023-05-31T08:40:52;4.78;;;1.52;;
22829;SDS011;11581;51.250;6.778;2023-05-31T08:43:19;3.00;;;1.73;;
22829;SDS011;11581;51.250;6.778;2023-05-31T08:45:48;3.67;;;1.40;;
22829;SDS011;11581;51.250;6.778;2023-05-31T08:48:30;8.38;;;2.15;;
22829;SDS011;11581;51.250;6.778;2023-05-31T08:51:07;5.97;;;1.70;;
22829;SDS011;11581;51.250;6.778;2023-05-31T08:53:35;3.65;;;1.70;;
22829;SDS011;11581;51.250;6.778;2023-05-31T08:56:02;4.38;;;1.48;;
22829;SDS011;11581;51.250;6.778;2023-05-31T08:58:30;7.95;;;1.38;;
22829;SDS011;11581;51.250;6.778;2023-05-31T09:00:57;2.83;;;1.65;;
22829;SDS011;11581;51.250;6.778;2023-05-31T09:03:26;2.97;;;1.25;;
22829;SDS011;11581;51.250;6.778;2023-05-31T09:05:53;4.97;;;1.27;;
22829;SDS011;11581;51.250;6.778;2023-05-31T09:08:21;3.58;;;1.83;;
22829;SDS011;11581;51.250;6.778;2023-05-31T09:10:48;4.50;;;1.63;;
22829;SDS011;11581;51.250;6.778;2023-05-31T09:13:15;4.60;;;1.88;;
22829;SDS011;11581;51.250;6.778;2023-05-31T09:15:43;4.07;;;2.00;;
22829;SDS011;11581;51.250;6.778;2023-05-31T09:18:14;3.13;;;1.27;;
22829;SDS011;11581;51.250;6.778;2023-05-31T09:20:44;3.88;;;1.70;;
22829;SDS011;11581;51.250;6.778;2023-05-31T09:23:12;5.47;;;1.70;;
22829;SDS011;11581;51.250;6.778;2023-05-31T09:25:43;6.15;;;2.05;;
22829;SDS011;11581;51.250;6.778;2023-05-31T09:28:10;6.03;;;2.10;;
22829;SDS011;11581;51.250;6.778;2023-05-31T09:30:37;17.00;;;10.98;;
22829;SDS011;11581;51.250;6.778;2023-05-31T09:33:04;10.30;;;5.10;;
22829;SDS011;11581;51.250;6.778;2023-05-31T09:35:31;5.30;;;2.42;;
22829;SDS011;11581;51.250;6.778;2023-05-31T09:38:03;5.68;;;1.92;;
22829;SDS011;11581;51.250;6.778;2023-05-31T09:40:30;3.40;;;1.70;;
22829;SDS011;11581;51.250;6.778;2023-05-31T09:42:57;4.35;;;2.22;;
22829;SDS011;11581;51.250;6.778;2023-05-31T09:45:25;4.13;;;1.92;;
22829;SDS011;11581;51.250;6.778;2023-05-31T09:47:53;7.00;;;2.70;;
22829;SDS011;11581;51.250;6.778;2023-05-31T09:50:20;5.60;;;2.92;;
22829;SDS011;11581;51.250;6.778;2023-05-31T09:52:48;3.95;;;2.00;;
22829;SDS011;11581;51.250;6.778;2023-05-31T09:55:18;9.77;;;5.75;;
22829;SDS011;11581;51.250;6.778;2023-05-31T09:57:45;4.72;;;2.50;;
22829;SDS011;11581;51.250;6.778;2023-05-31T10:00:14;4.15;;;1.80;;
22829;SDS011;11581;51.250;6.778;2023-05-31T10:02:43;5.20;;;2.00;;
22829;SDS011;11581;51.250;6.778;2023-05-31T10:05:10;2.83;;;1.48;;
22829;SDS011;11581;51.250;6.778;2023-05-31T10:07:38;4.68;;;2.63;;
22829;SDS011;11581;51.250;6.778;2023-05-31T10:10:06;6.70;;;1.85;;
22829;SDS011;11581;51.250;6.778;2023-05-31T10:12:37;11.63;;;6.80;;
22829;SDS011;11581;51.250;6.778;2023-05-31T10:15:07;4.63;;;3.03;;
22829;SDS011;11581;51.250;6.778;2023-05-31T10:17:42;7.85;;;4.35;;
22829;SDS011;11581;51.250;6.778;2023-05-31T10:20:15;8.45;;;4.28;;
22829;SDS011;11581;51.250;6.778;2023-05-31T10:22:43;7.47;;;2.33;;
22829;SDS011;11581;51.250;6.778;2023-05-31T10:25:14;6.50;;;1.90;;
22829;SDS011;11581;51.250;6.778;2023-05-31T10:27:51;4.55;;;1.95;;
22829;SDS011;11581;51.250;6.778;2023-05-31T10:30:20;5.03;;;2.08;;
22829;SDS011;11581;51.250;6.778;2023-05-31T10:32:53;3.97;;;1.77;;
22829;SDS011;11581;51.250;6.778;2023-05-31T10:35:24;4.25;;;1.55;;
22829;SDS011;11581;51.250;6.778;2023-05-31T10:37:51;3.67;;;1.65;;
22829;SDS011;11581;51.250;6.778;2023-05-31T10:40:20;4.32;;;1.42;;
22829;SDS011;11581;51.250;6.778;2023-05-31T10:42:54;2.55;;;1.40;;
22829;SDS011;11581;51.250;6.778;2023-05-31T10:45:26;2.13;;;1.38;;
22829;SDS011;11581;51.250;6.778;2023-05-31T10:47:56;3.45;;;1.58;;
22829;SDS011;11581;51.250;6.778;2023-05-31T10:50:29;3.25;;;1.70;;
22829;SDS011;11581;51.250;6.778;2023-05-31T10:53:07;3.97;;;1.67;;
22829;SDS011;11581;51.250;6.778;2023-05-31T10:55:40;8.30;;;3.38;;
22829;SDS011;11581;51.250;6.778;2023-05-31T10:58:08;5.30;;;1.80;;
22829;SDS011;11581;51.250;6.778;2023-05-31T11:00:51;2.65;;;1.30;;
22829;SDS011;11581;51.250;6.778;2023-05-31T11:03:20;4.93;;;1.92;;
22829;SDS011;11581;51.250;6.778;2023-05-31T11:05:53;8.55;;;2.50;;
22829;SDS011;11581;51.250;6.778;2023-05-31T11:08:21;3.78;;;1.40;;
22829;SDS011;11581;51.250;6.778;2023-05-31T11:10:48;5.85;;;1.50;;
22829;SDS011;11581;51.250;6.778;2023-05-31T11:13:16;9.90;;;1.40;;
22829;SDS011;11581;51.250;6.778;2023-05-31T11:15:44;2.63;;;1.23;;
22829;SDS011;11581;51.250;6.778;2023-05-31T11:18:13;5.15;;;1.27;;
22829;SDS011;11581;51.250;6.778;2023-05-31T11:20:41;3.08;;;1.40;;
22829;SDS011;11581;51.250;6.778;2023-05-31T11:23:23;3.95;;;1.42;;
22829;SDS011;11581;51.250;6.778;2023-05-31T11:26:07;5.05;;;1.85;;
22829;SDS011;11581;51.250;6.778;2023-05-31T11:28:51;3.42;;;1.33;;
22829;SDS011;11581;51.250;6.778;2023-05-31T11:34:20;8.60;;;1.55;;
22829;SDS011;11581;51.250;6.778;2023-05-31T11:36:50;7.47;;;1.35;;
22829;SDS011;11581;51.250;6.778;2023-05-31T11:39:16;3.08;;;1.40;;
22829;SDS011;11581;51.250;6.778;2023-05-31T11:41:43;4.05;;;1.60;;
22829;SDS011;11581;51.250;6.778;2023-05-31T11:44:12;4.53;;;1.30;;
22829;SDS011;11581;51.250;6.778;2023-05-31T11:46:42;2.72;;;1.10;;
22829;SDS011;11581;51.250;6.778;2023-05-31T11:49:12;2.75;;;1.25;;
22829;SDS011;11581;51.250;6.778;2023-05-31T11:51:41;2.30;;;1.17;;
22829;SDS011;11581;51.250;6.778;2023-05-31T11:54:08;6.13;;;1.45;;
22829;SDS011;11581;51.250;6.778;2023-05-31T11:56:37;3.03;;;1.73;;
22829;SDS011;11581;51.250;6.778;2023-05-31T11:59:03;2.83;;;1.30;;
22829;SDS011;11581;51.250;6.778;2023-05-31T12:01:36;3.95;;;1.25;;
22829;SDS011;11581;51.250;6.778;2023-05-31T12:04:03;17.63;;;1.55;;
22829;SDS011;11581;51.250;6.778;2023-05-31T12:06:30;5.05;;;1.73;;
22829;SDS011;11581;51.250;6.778;2023-05-31T12:08:56;4.70;;;1.27;;
22829;SDS011;11581;51.250;6.778;2023-05-31T12:11:23;11.20;;;1.35;;
22829;SDS011;11581;51.250;6.778;2023-05-31T12:13:53;5.03;;;1.98;;
22829;SDS011;11581;51.250;6.778;2023-05-31T12:16:20;4.03;;;1.60;;
22829;SDS011;11581;51.250;6.778;2023-05-31T12:18:48;4.57;;;1.23;;
22829;SDS011;11581;51.250;6.778;2023-05-31T12:21:15;5.93;;;1.35;;
22829;SDS011;11581;51.250;6.778;2023-05-31T12:23:51;3.47;;;1.20;;
22829;SDS011;11581;51.250;6.778;2023-05-31T12:26:19;5.45;;;1.08;;
22829;SDS011;11581;51.250;6.778;2023-05-31T12:28:48;5.03;;;1.70;;
22829;SDS011;11581;51.250;6.778;2023-05-31T12:31:19;3.00;;;1.25;;
22829;SDS011;11581;51.250;6.778;2023-05-31T12:33:52;6.47;;;1.27;;
22829;SDS011;11581;51.250;6.778;2023-05-31T12:36:24;6.30;;;1.50;;
22829;SDS011;11581;51.250;6.778;2023-05-31T12:38:55;2.90;;;1.50;;
22829;SDS011;11581;51.250;6.778;2023-05-31T12:41:22;1.88;;;0.93;;
22829;SDS011;11581;51.250;6.778;2023-05-31T12:43:48;2.22;;;1.08;;
22829;SDS011;11581;51.250;6.778;2023-05-31T12:46:18;4.25;;;1.35;;
22829;SDS011;11581;51.250;6.778;2023-05-31T12:48:45;3.65;;;1.30;;
22829;SDS011;11581;51.250;6.778;2023-05-31T12:51:14;2.83;;;1.20;;
22829;SDS011;11581;51.250;6.778;2023-05-31T12:53:46;2.33;;;1.08;;
22829;SDS011;11581;51.250;6.778;2023-05-31T12:56:13;2.85;;;1.52;;
22829;SDS011;11581;51.250;6.778;2023-05-31T12:58:39;3.25;;;1.38;;
22829;SDS011;11581;51.250;6.778;2023-05-31T13:01:06;3.83;;;1.63;;
22829;SDS011;11581;51.250;6.778;2023-05-31T13:03:33;6.28;;;1.50;;
22829;SDS011;11581;51.250;6.778;2023-05-31T13:06:01;3.53;;;1.40;;
22829;SDS011;11581;51.250;6.778;2023-05-31T13:08:31;6.97;;;1.15;;
22829;SDS011;11581;51.250;6.778;2023-05-31T13:10:57;4.15;;;1.75;;
22829;SDS011;11581;51.250;6.778;2023-05-31T13:13:24;5.32;;;1.58;;
22829;SDS011;11581;51.250;6.778;2023-05-31T13:15:50;3.45;;;1.30;;
22829;SDS011;11581;51.250;6.778;2023-05-31T13:18:17;2.83;;;1.40;;
22829;SDS011;11581;51.250;6.778;2023-05-31T13:20:44;3.45;;;1.33;;
22829;SDS011;11581;51.250;6.778;2023-05-31T13:23:10;3.08;;;1.42;;
22829;SDS011;11581;51.250;6.778;2023-05-31T13:25:38;3.53;;;1.23;;
22829;SDS011;11581;51.250;6.778;2023-05-31T13:28:05;3.28;;;1.35;;
22829;SDS011;11581;51.250;6.778;2023-05-31T13:30:33;4.70;;;1.73;;
22829;SDS011;11581;51.250;6.778;2023-05-31T13:33:00;10.48;;;1.65;;
22829;SDS011;11581;51.250;6.778;2023-05-31T13:35:26;5.47;;;1.85;;
22829;SDS011;11581;51.250;6.778;2023-05-31T13:37:53;4.60;;;1.13;;
22829;SDS011;11581;51.250;6.778;2023-05-31T13:40:20;2.53;;;1.02;;
22829;SDS011;11581;51.250;6.778;2023-05-31T13:42:48;9.68;;;1.40;;
22829;SDS011;11581;51.250;6.778;2023-05-31T13:45:14;8.90;;;1.70;;
22829;SDS011;11581;51.250;6.778;2023-05-31T13:47:41;4.95;;;1.60;;
22829;SDS011;11581;51.250;6.778;2023-05-31T13:50:08;3.40;;;1.38;;
22829;SDS011;11581;51.250;6.778;2023-05-31T13:52:35;3.65;;;1.38;;
22829;SDS011;11581;51.250;6.778;2023-05-31T13:55:02;2.83;;;1.50;;
22829;SDS011;11581;51.250;6.778;2023-05-31T13:57:29;7.35;;;1.52;;
22829;SDS011;11581;51.250;6.778;2023-05-31T13:59:57;3.03;;;1.30;;
22829;SDS011;11581;51.250;6.778;2023-05-31T14:02:24;3.72;;;1.48;;
22829;SDS011;11581;51.250;6.778;2023-05-31T14:04:51;4.53;;;1.45;;
22829;SDS011;11581;51.250;6.778;2023-05-31T14:07:18;4.57;;;1.15;;
22829;SDS011;11581;51.250;6.778;2023-05-31T14:09:45;3.22;;;1.42;;
22829;SDS011;11581;51.250;6.778;2023-05-31T14:12:12;4.22;;;1.35;;
22829;SDS011;11581;51.250;6.778;2023-05-31T14:14:39;4.18;;;1.67;;
22829;SDS011;11581;51.250;6.778;2023-05-31T14:17:07;10.23;;;1.48;;
22829;SDS011;11581;51.250;6.778;2023-05-31T14:19:34;3.38;;;1.20;;
22829;SDS011;11581;51.250;6.778;2023-05-31T14:22:00;3.10;;;1.02;;
22829;SDS011;11581;51.250;6.778;2023-05-31T14:24:27;5.05;;;1.33;;
22829;SDS011;11581;51.250;6.778;2023-05-31T14:26:54;3.03;;;1.10;;
22829;SDS011;11581;51.250;6.778;2023-05-31T14:29:20;4.55;;;1.40;;
22829;SDS011;11581;51.250;6.778;2023-05-31T14:31:47;3.42;;;1.40;;
22829;SDS011;11581;51.250;6.778;2023-05-31T14:34:15;8.32;;;2.00;;
22829;SDS011;11581;51.250;6.778;2023-05-31T14:36:42;3.67;;;1.25;;
22829;SDS011;11581;51.250;6.778;2023-05-31T14:39:09;3.80;;;1.30;;
22829;SDS011;11581;51.250;6.778;2023-05-31T14:41:36;3.67;;;1.27;;
22829;SDS011;11581;51.250;6.778;2023-05-31T14:44:02;3.28;;;1.30;;
22829;SDS011;11581;51.250;6.778;2023-05-31T14:46:29;2.35;;;1.17;;
22829;SDS011;11581;51.250;6.778;2023-05-31T14:48:56;3.47;;;1.23;;
22829;SDS011;11581;51.250;6.778;2023-05-31T14:51:24;4.82;;;1.88;;
22829;SDS011;11581;51.250;6.778;2023-05-31T14:53:53;1.80;;;1.02;;
22829;SDS011;11581;51.250;6.778;2023-05-31T14:56:20;3.38;;;1.33;;
22829;SDS011;11581;51.250;6.778;2023-05-31T14:58:46;2.30;;;1.17;;